createdAt,value
2023-09-27T00:00:32.268Z,18.30
2023-09-27T00:02:39.187Z,20.70
2023-09-27T00:04:45.361Z,20.70
2023-09-27T00:06:55.301Z,18.80
2023-09-27T00:09:02.500Z,19.70
2023-09-27T00:11:11.451Z,21.30
2023-09-27T00:13:19.459Z,19.50
2023-09-27T00:15:25.415Z,20.10
2023-09-27T00:17:31.917Z,19.30
2023-09-27T00:19:40.144Z,19.80
2023-09-27T00:21:45.605Z,19.90
2023-09-27T00:23:53.111Z,18.70
2023-09-27T00:26:02.266Z,18.20
2023-09-27T00:28:10.640Z,18.50
2023-09-27T00:30:20.242Z,19.00
2023-09-27T00:32:27.784Z,19.10
2023-09-27T00:34:36.175Z,18.10
2023-09-27T00:36:43.696Z,16.80
2023-09-27T00:38:51.823Z,16.90
2023-09-27T00:40:58.665Z,19.50
2023-09-27T00:43:04.795Z,17.70
2023-09-27T00:45:14.139Z,18.60
2023-09-27T00:47:20.531Z,20.00
2023-09-27T00:49:28.116Z,19.00
2023-09-27T00:51:33.685Z,19.20
2023-09-27T00:53:42.606Z,17.60
2023-09-27T00:55:50.073Z,22.50
2023-09-27T00:57:57.126Z,19.70
2023-09-27T01:03:26.415Z,21.40
2023-09-27T01:05:31.906Z,20.30
2023-09-27T01:07:37.938Z,20.00
2023-09-27T01:09:42.692Z,22.20
2023-09-27T01:11:47.982Z,21.20
2023-09-27T01:13:55.840Z,17.70
2023-09-27T01:16:00.544Z,18.90
2023-09-27T01:18:05.999Z,18.40
2023-09-27T01:20:12.550Z,18.70
2023-09-27T01:22:17.418Z,17.50
2023-09-27T01:24:22.866Z,21.10
2023-09-27T01:26:29.813Z,19.60
2023-09-27T01:28:36.511Z,18.50
2023-09-27T01:30:41.351Z,20.60
2023-09-27T01:32:49.335Z,20.60
2023-09-27T01:34:57.080Z,18.60
2023-09-27T01:37:01.822Z,19.00
2023-09-27T01:39:06.758Z,20.20
2023-09-27T01:41:11.673Z,20.50
2023-09-27T01:43:16.546Z,19.40
2023-09-27T01:45:24.413Z,19.60
2023-09-27T01:47:32.410Z,18.20
2023-09-27T01:49:37.247Z,18.30
2023-09-27T01:51:43.283Z,20.00
2023-09-27T01:53:48.080Z,19.10
2023-09-27T01:55:52.871Z,20.00
2023-09-27T01:57:58.236Z,19.40
2023-09-27T02:00:03.129Z,18.60
2023-09-27T02:02:17.113Z,21.80
2023-09-27T02:04:21.842Z,19.50
2023-09-27T02:06:29.241Z,18.20
2023-09-27T02:08:34.179Z,19.40
2023-09-27T02:10:38.903Z,19.80
2023-09-27T02:12:43.852Z,19.50
2023-09-27T02:14:52.976Z,18.30
2023-09-27T02:16:57.653Z,20.90
2023-09-27T02:19:02.341Z,17.70
2023-09-27T02:21:07.368Z,20.50
2023-09-27T02:23:12.262Z,17.60
2023-09-27T02:25:17.604Z,18.50
2023-09-27T02:27:22.461Z,17.60
2023-09-27T02:29:27.442Z,17.50
2023-09-27T02:31:32.293Z,17.40
2023-09-27T02:33:37.086Z,17.70
2023-09-27T02:35:41.869Z,20.40
2023-09-27T02:37:46.917Z,17.90
2023-09-27T02:39:52.733Z,16.70
2023-09-27T02:41:58.013Z,18.50
2023-09-27T02:44:02.757Z,16.70
2023-09-27T02:46:07.574Z,17.40
2023-09-27T02:48:12.460Z,16.60
2023-09-27T02:50:17.716Z,16.80
2023-09-27T02:52:22.516Z,17.00
2023-09-27T02:54:27.952Z,16.00
2023-09-27T02:56:35.532Z,15.90
2023-09-27T02:58:40.374Z,16.20
2023-09-27T03:00:45.251Z,16.40
2023-09-27T03:02:52.197Z,17.40
2023-09-27T03:04:57.467Z,15.40
2023-09-27T03:07:02.358Z,15.00
2023-09-27T03:09:07.524Z,18.70
2023-09-27T03:11:15.230Z,15.80
2023-09-27T03:13:20.555Z,18.40
2023-09-27T03:15:25.356Z,14.60
2023-09-27T03:17:30.948Z,14.40
2023-09-27T03:19:35.750Z,14.20
2023-09-27T03:21:40.722Z,15.90
2023-09-27T03:23:45.493Z,14.80
2023-09-27T03:25:50.312Z,14.10
2023-09-27T03:27:55.153Z,14.50
2023-09-27T03:29:59.982Z,16.20
2023-09-27T03:32:04.918Z,15.90
2023-09-27T03:34:10.532Z,14.60
2023-09-27T03:36:15.556Z,15.40
2023-09-27T03:38:20.366Z,15.80
2023-09-27T03:40:25.339Z,16.90
2023-09-27T03:42:30.271Z,15.30
2023-09-27T03:44:34.956Z,16.30
2023-09-27T03:46:40.586Z,14.60
2023-09-27T03:48:49.103Z,16.00
2023-09-27T03:50:58.381Z,18.00
2023-09-27T03:53:04.819Z,15.80
2023-09-27T03:55:10.674Z,16.20
2023-09-27T03:57:15.704Z,14.30
2023-09-27T03:59:20.565Z,13.70
2023-09-27T04:01:25.499Z,14.60
2023-09-27T04:03:30.686Z,13.70
2023-09-27T04:05:38.327Z,13.60
2023-09-27T04:07:43.323Z,13.40
2023-09-27T04:09:48.127Z,14.10
2023-09-27T04:11:52.884Z,14.00
2023-09-27T04:13:57.710Z,13.20
2023-09-27T04:16:02.665Z,14.60
2023-09-27T04:18:07.898Z,14.70
2023-09-27T04:20:13.142Z,14.40
2023-09-27T04:22:17.873Z,15.80
2023-09-27T04:24:22.909Z,13.50
2023-09-27T04:26:29.514Z,15.00
2023-09-27T04:28:37.208Z,14.00
2023-09-27T04:30:41.856Z,14.20
2023-09-27T04:32:47.702Z,17.00
2023-09-27T04:34:52.545Z,19.00
2023-09-27T04:36:57.346Z,15.00
2023-09-27T04:39:05.367Z,12.80
2023-09-27T04:41:10.185Z,14.30
2023-09-27T04:43:14.991Z,13.40
2023-09-27T04:45:19.936Z,16.10
2023-09-27T04:47:24.743Z,14.60
2023-09-27T04:49:29.577Z,24.10
2023-09-27T04:51:34.417Z,16.10
2023-09-27T04:53:39.514Z,17.40
2023-09-27T04:55:44.570Z,19.90
2023-09-27T04:57:49.366Z,17.10
2023-09-27T04:59:55.145Z,16.80
2023-09-27T05:02:00.319Z,16.30
2023-09-27T05:04:05.848Z,14.30
2023-09-27T05:06:10.745Z,16.40
2023-09-27T05:08:15.553Z,13.00
2023-09-27T05:10:20.716Z,14.00
2023-09-27T05:12:25.740Z,12.70
2023-09-27T05:14:30.636Z,15.00
2023-09-27T05:16:39.082Z,14.70
2023-09-27T05:18:45.208Z,14.10
2023-09-27T05:20:49.959Z,14.10
2023-09-27T05:22:55.002Z,15.40
2023-09-27T05:24:59.724Z,15.80
2023-09-27T05:27:04.561Z,15.30
2023-09-27T05:29:11.258Z,13.20
2023-09-27T05:31:16.316Z,14.80
2023-09-27T05:33:22.353Z,13.90
2023-09-27T05:35:27.397Z,16.10
2023-09-27T05:37:32.189Z,15.40
2023-09-27T05:39:36.964Z,16.10
2023-09-27T05:41:42.738Z,15.00
2023-09-27T05:43:47.455Z,15.20
2023-09-27T05:45:52.283Z,17.30
2023-09-27T05:47:57.297Z,14.80
2023-09-27T05:50:02.318Z,15.90
2023-09-27T05:52:07.247Z,13.30
2023-09-27T05:54:12.095Z,15.30
2023-09-27T05:56:17.989Z,15.90
2023-09-27T05:58:22.772Z,13.60
2023-09-27T06:00:27.885Z,14.50
2023-09-27T06:02:33.090Z,17.60
2023-09-27T06:04:37.936Z,18.40
2023-09-27T06:06:42.710Z,16.10
2023-09-27T06:08:50.950Z,15.20
2023-09-27T06:10:55.908Z,15.60
2023-09-27T06:13:00.571Z,16.00
2023-09-27T06:15:06.528Z,16.50
2023-09-27T06:17:11.589Z,17.30
2023-09-27T06:19:16.546Z,16.10
2023-09-27T06:21:21.690Z,17.30
2023-09-27T06:23:27.026Z,17.90
2023-09-27T06:25:32.193Z,18.60
2023-09-27T06:27:37.003Z,17.80
2023-09-27T06:29:41.880Z,16.80
2023-09-27T06:31:47.050Z,19.60
2023-09-27T06:33:51.981Z,17.90
2023-09-27T06:36:02.136Z,17.30
2023-09-27T06:38:07.258Z,19.50
2023-09-27T06:40:13.367Z,20.00
2023-09-27T06:42:18.378Z,17.30
2023-09-27T06:44:23.261Z,17.20
2023-09-27T06:46:35.623Z,19.30
2023-09-27T06:48:52.350Z,18.50
2023-09-27T06:50:57.327Z,22.10
2023-09-27T06:53:19.845Z,19.10
2023-09-27T06:55:26.954Z,16.80
2023-09-27T06:57:31.790Z,17.80
2023-09-27T06:59:36.801Z,18.80
2023-09-27T07:01:43.134Z,19.50
2023-09-27T07:03:48.205Z,19.30
2023-09-27T07:05:53.675Z,17.90
2023-09-27T07:07:58.497Z,16.10
2023-09-27T07:10:03.427Z,16.70
2023-09-27T07:12:08.545Z,21.20
2023-09-27T07:14:16.678Z,17.00
2023-09-27T07:16:26.138Z,17.70
2023-09-27T07:18:31.486Z,16.80
2023-09-27T07:20:36.559Z,17.00
2023-09-27T07:22:41.590Z,18.10
2023-09-27T07:24:46.733Z,16.50
2023-09-27T07:26:51.675Z,16.10
2023-09-27T07:28:56.739Z,17.30
2023-09-27T07:31:01.852Z,18.30
2023-09-27T07:33:07.693Z,15.40
2023-09-27T07:35:12.822Z,16.60
2023-09-27T07:37:17.882Z,16.40
2023-09-27T07:39:22.928Z,17.70
2023-09-27T07:41:28.216Z,16.50
2023-09-27T07:43:33.261Z,16.20
2023-09-27T07:45:39.425Z,14.60
2023-09-27T07:47:44.745Z,14.40
2023-09-27T07:49:49.788Z,14.70
2023-09-27T07:51:54.885Z,17.80
2023-09-27T07:54:00.020Z,14.80
2023-09-27T07:56:05.539Z,16.50
2023-09-27T07:58:10.840Z,15.50
2023-09-27T08:00:17.439Z,15.60
2023-09-27T08:02:22.997Z,18.30
2023-09-27T08:04:29.482Z,16.10
2023-09-27T08:06:34.781Z,16.70
2023-09-27T08:08:40.249Z,15.10
2023-09-27T08:10:45.660Z,14.10
2023-09-27T08:12:53.501Z,15.20
2023-09-27T08:14:58.381Z,13.70
2023-09-27T08:17:03.775Z,14.20
2023-09-27T08:19:08.872Z,14.30
2023-09-27T08:21:16.424Z,14.60
2023-09-27T08:23:21.560Z,15.40
2023-09-27T08:25:26.459Z,15.20
2023-09-27T08:27:31.533Z,17.40
2023-09-27T08:29:36.674Z,15.80
2023-09-27T08:31:42.295Z,14.80
2023-09-27T08:33:47.500Z,14.60
2023-09-27T08:35:54.264Z,15.20
2023-09-27T08:37:59.461Z,12.90
2023-09-27T08:40:04.993Z,15.20
2023-09-27T08:42:10.133Z,15.50
2023-09-27T08:44:15.370Z,14.70
2023-09-27T08:46:23.256Z,15.70
2023-09-27T08:48:31.595Z,18.40
2023-09-27T08:50:38.208Z,13.30
2023-09-27T08:52:46.446Z,15.50
2023-09-27T08:54:52.708Z,14.30
2023-09-27T08:56:58.326Z,14.60
2023-09-27T08:59:07.080Z,14.10
2023-09-27T09:01:12.672Z,14.30
2023-09-27T09:03:18.600Z,14.90
2023-09-27T09:05:24.397Z,14.00
2023-09-27T09:07:29.325Z,13.10
2023-09-27T09:09:37.330Z,13.50
2023-09-27T09:11:45.316Z,12.30
2023-09-27T09:14:01.481Z,15.60
2023-09-27T09:16:17.127Z,13.30
2023-09-27T09:18:30.244Z,14.20
2023-09-27T09:20:35.937Z,15.70
2023-09-27T09:22:45.731Z,14.70
2023-09-27T09:24:59.458Z,12.40
2023-09-27T09:27:13.602Z,15.40
2023-09-27T09:29:21.161Z,14.10
2023-09-27T09:31:27.970Z,14.00
2023-09-27T09:33:33.062Z,12.60
2023-09-27T09:35:38.172Z,16.90
2023-09-27T09:37:48.466Z,15.80
2023-09-27T09:39:54.759Z,14.20
2023-09-27T09:42:00.358Z,14.50
2023-09-27T09:44:19.011Z,15.30
2023-09-27T09:46:27.461Z,12.40
2023-09-27T09:48:33.417Z,15.30
2023-09-27T09:50:40.667Z,12.20
2023-09-27T09:52:53.522Z,12.70
2023-09-27T09:55:15.321Z,12.90
2023-09-27T09:57:51.670Z,13.50
2023-09-27T10:00:06.360Z,12.30
2023-09-27T10:02:20.752Z,13.40
2023-09-27T10:04:28.019Z,12.30
2023-09-27T10:06:47.400Z,17.50
2023-09-27T10:09:00.013Z,32.90
2023-09-27T10:11:06.745Z,14.50
2023-09-27T10:13:14.558Z,14.50
2023-09-27T10:15:21.816Z,14.40
2023-09-27T10:17:30.455Z,14.80
2023-09-27T10:19:36.082Z,14.80
2023-09-27T10:22:02.979Z,13.40
2023-09-27T10:24:10.898Z,12.70
2023-09-27T10:26:31.648Z,13.80
2023-09-27T10:29:12.958Z,13.70
2023-09-27T10:31:18.015Z,12.40
2023-09-27T10:33:35.573Z,12.30
2023-09-27T10:35:40.640Z,11.50
2023-09-27T10:37:59.854Z,14.10
2023-09-27T10:40:24.328Z,12.70
2023-09-27T10:42:42.629Z,10.50
2023-09-27T10:44:47.707Z,15.60
2023-09-27T10:46:52.560Z,13.60
2023-09-27T10:48:58.258Z,12.80
2023-09-27T10:51:03.182Z,12.70
2023-09-27T10:53:08.897Z,10.90
2023-09-27T10:55:15.808Z,13.90
2023-09-27T10:57:22.860Z,11.80
2023-09-27T10:59:28.638Z,10.90
2023-09-27T11:01:33.798Z,12.30
2023-09-27T11:03:38.796Z,9.30
2023-09-27T11:05:43.759Z,10.30
2023-09-27T11:07:50.567Z,12.80
2023-09-27T11:09:55.444Z,12.10
2023-09-27T11:12:00.541Z,12.70
2023-09-27T11:14:05.771Z,12.50
2023-09-27T11:16:12.166Z,10.10
2023-09-27T11:18:17.317Z,10.20
2023-09-27T11:20:24.737Z,11.00
2023-09-27T11:22:31.688Z,12.20
2023-09-27T11:24:42.752Z,9.30
2023-09-27T11:26:47.874Z,9.90
2023-09-27T11:29:00.364Z,9.80
2023-09-27T11:31:06.085Z,10.90
2023-09-27T11:33:12.339Z,12.20
2023-09-27T11:35:21.189Z,10.00
2023-09-27T11:37:26.668Z,12.20
2023-09-27T11:39:47.847Z,8.90
2023-09-27T11:41:59.111Z,10.50
2023-09-27T11:44:17.806Z,10.60
2023-09-27T11:46:29.909Z,10.60
2023-09-27T11:48:35.481Z,10.40
2023-09-27T11:50:41.103Z,10.80
2023-09-27T11:52:47.210Z,8.40
2023-09-27T11:54:52.233Z,9.60
2023-09-27T11:56:57.369Z,11.80
2023-09-27T11:59:02.915Z,11.30
2023-09-27T12:01:07.995Z,10.90
2023-09-27T12:03:13.133Z,11.20
2023-09-27T12:05:18.911Z,10.10
2023-09-27T12:07:24.391Z,11.40
2023-09-27T12:09:29.716Z,14.30
2023-09-27T12:11:34.827Z,28.10
2023-09-27T12:13:40.802Z,11.70
2023-09-27T12:15:45.875Z,11.50
2023-09-27T12:17:51.204Z,11.10
2023-09-27T12:19:56.104Z,9.50
2023-09-27T12:22:01.169Z,9.50
2023-09-27T12:24:07.183Z,11.20
2023-09-27T12:26:12.471Z,11.90
2023-09-27T12:28:17.611Z,11.20
2023-09-27T12:30:22.707Z,10.80
2023-09-27T12:32:27.802Z,9.80
2023-09-27T12:34:32.871Z,12.00
2023-09-27T12:36:38.829Z,10.70
2023-09-27T12:38:43.652Z,10.50
2023-09-27T12:40:48.708Z,9.90
2023-09-27T12:42:53.690Z,9.40
2023-09-27T12:44:58.714Z,13.10
2023-09-27T12:47:03.901Z,9.80
2023-09-27T12:49:09.384Z,12.60
2023-09-27T12:51:14.589Z,9.90
2023-09-27T12:53:19.533Z,9.50
2023-09-27T12:55:24.869Z,11.00
2023-09-27T12:57:29.964Z,9.30
2023-09-27T12:59:35.042Z,11.10
2023-09-27T13:01:41.879Z,9.20
2023-09-27T13:03:47.318Z,14.10
2023-09-27T13:05:52.590Z,10.80
2023-09-27T13:07:57.627Z,11.50
2023-09-27T13:10:02.767Z,10.00
2023-09-27T13:12:10.832Z,10.30
2023-09-27T13:14:16.127Z,9.60
2023-09-27T13:16:21.369Z,10.00
2023-09-27T13:18:29.610Z,11.80
2023-09-27T13:20:35.965Z,10.80
2023-09-27T13:22:41.578Z,10.60
2023-09-27T13:24:49.302Z,9.10
2023-09-27T13:26:54.777Z,8.50
2023-09-27T13:29:00.037Z,9.30
2023-09-27T13:31:05.374Z,10.90
2023-09-27T13:33:10.295Z,10.30
2023-09-27T13:35:15.874Z,10.20
2023-09-27T13:37:21.285Z,11.60
2023-09-27T13:39:26.541Z,11.50
2023-09-27T13:41:32.192Z,10.80
2023-09-27T13:43:37.383Z,9.60
2023-09-27T13:45:44.072Z,13.00
2023-09-27T13:47:56.330Z,10.90
2023-09-27T13:50:01.524Z,10.60
2023-09-27T13:52:06.622Z,11.00
2023-09-27T13:54:12.215Z,10.00
2023-09-27T13:56:18.461Z,9.90
2023-09-27T13:58:23.597Z,11.10
2023-09-27T14:00:28.688Z,10.70
2023-09-27T14:02:33.828Z,10.10
2023-09-27T14:04:38.856Z,10.10
2023-09-27T14:06:43.942Z,11.70
2023-09-27T14:08:49.091Z,11.50
2023-09-27T14:10:54.327Z,11.00
2023-09-27T14:12:59.196Z,11.70
2023-09-27T14:15:04.648Z,9.90
2023-09-27T14:17:10.392Z,9.10
2023-09-27T14:19:15.327Z,9.70
2023-09-27T14:21:20.470Z,8.70
2023-09-27T14:23:25.642Z,10.00
2023-09-27T14:25:30.586Z,11.30
2023-09-27T14:27:35.623Z,9.10
2023-09-27T14:29:40.750Z,9.40
2023-09-27T14:31:45.825Z,9.20
2023-09-27T14:33:51.542Z,9.60
2023-09-27T14:35:56.697Z,10.60
2023-09-27T14:38:01.952Z,11.00
2023-09-27T14:40:08.303Z,10.80
2023-09-27T14:42:13.349Z,11.50
2023-09-27T14:44:18.424Z,9.60
2023-09-27T14:46:23.608Z,9.80
2023-09-27T14:48:28.789Z,11.60
2023-09-27T14:50:34.333Z,10.40
2023-09-27T14:52:39.593Z,13.00
2023-09-27T14:54:47.576Z,12.80
2023-09-27T14:56:52.379Z,13.50
2023-09-27T14:58:58.041Z,10.30
2023-09-27T15:01:04.630Z,10.70
2023-09-27T15:03:09.741Z,10.40
2023-09-27T15:05:15.016Z,12.40
2023-09-27T15:07:20.109Z,12.80
2023-09-27T15:09:24.898Z,9.70
2023-09-27T15:11:30.041Z,9.00
2023-09-27T15:13:34.794Z,10.60
2023-09-27T15:15:43.813Z,12.80
2023-09-27T15:17:48.634Z,9.30
2023-09-27T15:19:53.736Z,12.00
2023-09-27T15:22:01.369Z,12.50
2023-09-27T15:24:06.579Z,9.60
2023-09-27T15:26:13.598Z,12.70
2023-09-27T15:28:18.454Z,8.80
2023-09-27T15:30:23.508Z,11.30
2023-09-27T15:32:28.478Z,10.50
2023-09-27T15:34:36.260Z,12.50
2023-09-27T15:36:40.960Z,11.70
2023-09-27T15:38:45.808Z,12.80
2023-09-27T15:40:50.998Z,11.50
2023-09-27T15:42:57.193Z,11.60
2023-09-27T15:45:09.045Z,10.30
2023-09-27T15:47:14.279Z,13.10
2023-09-27T15:49:19.277Z,11.80
2023-09-27T15:51:24.287Z,11.90
2023-09-27T15:53:31.925Z,10.60
2023-09-27T15:55:36.690Z,10.20
2023-09-27T15:57:41.514Z,11.70
2023-09-27T15:59:46.312Z,10.80
2023-09-27T16:01:51.333Z,9.50
2023-09-27T16:03:56.190Z,11.00
2023-09-27T16:06:01.520Z,10.40
2023-09-27T16:08:06.991Z,11.40
2023-09-27T16:10:12.489Z,11.20
2023-09-27T16:12:17.269Z,11.20
2023-09-27T16:14:22.251Z,10.00
2023-09-27T16:16:27.507Z,12.40
2023-09-27T16:18:32.370Z,11.60
2023-09-27T16:20:37.224Z,12.90
2023-09-27T16:22:42.203Z,9.80
2023-09-27T16:24:47.364Z,11.50
2023-09-27T16:26:52.446Z,10.50
2023-09-27T16:28:57.383Z,12.40
2023-09-27T16:31:08.292Z,11.80
2023-09-27T16:33:15.132Z,11.80
2023-09-27T16:35:20.809Z,13.20
2023-09-27T16:37:26.132Z,10.70
2023-09-27T16:39:31.223Z,9.00
2023-09-27T16:41:37.969Z,12.40
2023-09-27T16:43:43.134Z,11.30
2023-09-27T16:45:48.272Z,12.40
2023-09-27T16:47:53.665Z,9.70
2023-09-27T16:49:59.017Z,12.60
2023-09-27T16:52:04.243Z,12.10
2023-09-27T16:54:10.189Z,11.10
2023-09-27T16:56:15.251Z,13.70
2023-09-27T16:58:20.971Z,11.50
2023-09-27T17:00:26.135Z,10.50
2023-09-27T17:02:32.772Z,10.40
2023-09-27T17:04:39.619Z,11.20
2023-09-27T17:06:45.886Z,10.30
2023-09-27T17:08:52.097Z,9.30
2023-09-27T17:10:58.601Z,11.10
2023-09-27T17:13:04.925Z,13.10
2023-09-27T17:15:12.552Z,10.70
2023-09-27T17:17:18.835Z,15.10
2023-09-27T17:19:27.761Z,13.50
2023-09-27T17:21:33.903Z,11.00
2023-09-27T17:23:40.753Z,14.10
2023-09-27T17:25:47.721Z,10.60
2023-09-27T17:27:53.412Z,11.30
2023-09-27T17:30:01.063Z,11.90
2023-09-27T17:32:12.809Z,11.70
2023-09-27T17:34:19.974Z,11.10
2023-09-27T17:36:26.370Z,13.10
2023-09-27T17:38:34.570Z,13.80
2023-09-27T17:40:40.928Z,10.60
2023-09-27T17:42:46.652Z,14.50
2023-09-27T17:44:53.405Z,9.70
2023-09-27T17:47:00.954Z,9.90
2023-09-27T17:49:08.472Z,10.60
2023-09-27T17:51:17.075Z,12.00
2023-09-27T17:53:23.090Z,9.40
2023-09-27T17:55:28.634Z,12.20
2023-09-27T17:57:36.520Z,9.60
2023-09-27T17:59:45.615Z,9.40
2023-09-27T18:01:53.932Z,10.30
2023-09-27T18:04:00.710Z,11.90
2023-09-27T18:06:14.075Z,10.90
2023-09-27T18:08:20.729Z,10.90
2023-09-27T18:10:26.015Z,12.40
2023-09-27T18:12:33.532Z,9.40
2023-09-27T18:14:39.107Z,11.20
2023-09-27T18:16:46.700Z,12.30
2023-09-27T18:18:52.261Z,8.50
2023-09-27T18:20:58.015Z,10.60
2023-09-27T18:23:04.746Z,9.90
2023-09-27T18:25:17.843Z,11.70
2023-09-27T18:27:25.198Z,9.50
2023-09-27T18:29:31.441Z,11.00
2023-09-27T18:31:42.724Z,12.30
2023-09-27T18:33:49.916Z,10.10
2023-09-27T18:35:57.577Z,10.80
2023-09-27T18:38:05.662Z,11.50
2023-09-27T18:40:14.130Z,12.90
2023-09-27T18:42:24.135Z,11.60
2023-09-27T18:44:32.742Z,10.80
2023-09-27T18:46:39.729Z,10.60
2023-09-27T18:48:47.377Z,10.50
2023-09-27T18:50:55.349Z,11.70
2023-09-27T18:53:02.668Z,11.00
2023-09-27T18:55:13.920Z,14.40
2023-09-27T18:57:22.563Z,11.00
2023-09-27T18:59:30.098Z,9.60
2023-09-27T19:01:36.171Z,11.20
2023-09-27T19:03:43.186Z,11.40
2023-09-27T19:05:52.263Z,10.70
2023-09-27T19:08:02.892Z,10.60
2023-09-27T19:10:12.122Z,11.50
2023-09-27T19:12:22.926Z,10.40
2023-09-27T19:14:34.088Z,10.70
2023-09-27T19:16:43.763Z,11.30
2023-09-27T19:18:54.522Z,10.40
2023-09-27T19:21:00.407Z,9.30
2023-09-27T19:23:07.479Z,10.80
2023-09-27T19:25:15.010Z,10.00
2023-09-27T19:27:21.975Z,10.00
2023-09-27T19:29:28.227Z,9.90
2023-09-27T19:31:35.273Z,11.30
2023-09-27T19:33:43.453Z,9.90
2023-09-27T19:35:49.839Z,10.80
2023-09-27T19:37:57.845Z,15.30
2023-09-27T19:40:08.111Z,13.10
2023-09-27T19:42:17.105Z,10.90
2023-09-27T19:44:24.869Z,11.50
2023-09-27T19:46:31.951Z,9.10
2023-09-27T19:48:47.425Z,12.40
2023-09-27T19:50:53.649Z,12.20
2023-09-27T19:53:02.797Z,13.20
2023-09-27T19:55:11.319Z,11.20
2023-09-27T19:57:19.099Z,10.70
2023-09-27T19:59:27.715Z,12.30
2023-09-27T20:01:34.782Z,11.00
2023-09-27T20:03:41.271Z,10.20
2023-09-27T20:05:47.028Z,11.90
2023-09-27T20:07:53.505Z,10.20
2023-09-27T20:09:59.405Z,11.60
2023-09-27T20:12:04.997Z,9.00
2023-09-27T20:14:10.374Z,12.00
2023-09-27T20:16:17.915Z,11.20
2023-09-27T20:18:24.091Z,9.30
2023-09-27T20:20:29.344Z,13.70
2023-09-27T20:22:35.778Z,9.30
2023-09-27T20:24:41.572Z,11.80
2023-09-27T20:26:48.724Z,9.50
2023-09-27T20:28:54.230Z,12.60
2023-09-27T20:30:59.748Z,10.00
2023-09-27T20:33:05.644Z,11.30
2023-09-27T20:35:11.356Z,11.20
2023-09-27T20:37:16.275Z,10.60
2023-09-27T20:39:21.645Z,12.40
2023-09-27T20:41:26.411Z,11.10
2023-09-27T20:43:31.452Z,10.60
2023-09-27T20:45:37.785Z,11.60
2023-09-27T20:47:42.690Z,11.70
2023-09-27T20:49:47.826Z,9.00
2023-09-27T20:51:52.721Z,10.80
2023-09-27T20:53:57.724Z,9.70
2023-09-27T20:56:05.359Z,11.80
2023-09-27T20:58:10.266Z,9.50
2023-09-27T21:00:16.771Z,9.80
2023-09-27T21:02:21.869Z,11.60
2023-09-27T21:04:29.507Z,9.70
2023-09-27T21:06:34.397Z,12.60
2023-09-27T21:08:41.073Z,12.10
2023-09-27T21:10:47.259Z,11.30
2023-09-27T21:12:52.168Z,10.40
2023-09-27T21:14:59.749Z,9.20
2023-09-27T21:17:04.564Z,10.10
2023-09-27T21:19:09.356Z,9.20
2023-09-27T21:21:14.524Z,12.00
2023-09-27T21:23:20.983Z,12.60
2023-09-27T21:25:26.050Z,12.20
2023-09-27T21:27:30.845Z,11.00
2023-09-27T21:29:35.672Z,10.10
2023-09-27T21:31:42.957Z,12.90
2023-09-27T21:33:47.906Z,12.80
2023-09-27T21:35:56.719Z,12.30
2023-09-27T21:38:01.666Z,12.90
2023-09-27T21:40:08.644Z,11.00
2023-09-27T21:42:13.544Z,11.10
2023-09-27T21:44:22.107Z,10.00
2023-09-27T21:46:27.095Z,10.20
2023-09-27T21:48:32.757Z,9.60
2023-09-27T21:50:38.702Z,13.40
2023-09-27T21:52:43.481Z,11.40
2023-09-27T21:54:48.478Z,11.70
2023-09-27T21:56:53.271Z,10.20
2023-09-27T21:58:58.219Z,10.20
2023-09-27T22:01:09.465Z,12.00
2023-09-27T22:03:14.409Z,12.80
2023-09-27T22:05:19.499Z,12.40
2023-09-27T22:07:24.346Z,8.90
2023-09-27T22:09:29.289Z,10.20
2023-09-27T22:11:34.058Z,9.70
2023-09-27T22:13:39.624Z,9.90
2023-09-27T22:15:45.476Z,12.40
2023-09-27T22:17:50.339Z,10.20
2023-09-27T22:19:55.209Z,8.80
2023-09-27T22:22:00.367Z,11.40
2023-09-27T22:24:06.078Z,10.30
2023-09-27T22:26:16.257Z,9.80
2023-09-27T22:28:21.464Z,11.60
2023-09-27T22:30:26.335Z,12.40
2023-09-27T22:32:31.143Z,12.40
2023-09-27T22:34:35.957Z,10.20
2023-09-27T22:36:41.640Z,10.60
2023-09-27T22:38:46.399Z,10.50
2023-09-27T22:40:51.230Z,10.00
2023-09-27T22:42:56.088Z,10.00
2023-09-27T22:45:00.773Z,12.20
2023-09-27T22:47:06.279Z,11.10
2023-09-27T22:49:10.987Z,9.20
2023-09-27T22:51:15.864Z,11.40
2023-09-27T22:53:21.621Z,10.20
2023-09-27T22:55:27.365Z,10.20
2023-09-27T22:57:32.782Z,10.70
2023-09-27T22:59:37.692Z,11.20
2023-09-27T23:01:44.983Z,10.30
2023-09-27T23:03:51.241Z,12.70
2023-09-27T23:05:56.303Z,8.70
2023-09-27T23:08:02.244Z,12.80
2023-09-27T23:10:08.598Z,10.70
2023-09-27T23:12:13.656Z,10.20
2023-09-27T23:14:19.644Z,9.60
2023-09-27T23:16:24.782Z,10.10
2023-09-27T23:18:30.201Z,10.10
2023-09-27T23:20:35.617Z,11.80
2023-09-27T23:22:40.336Z,11.50
2023-09-27T23:24:51.842Z,12.00
2023-09-27T23:26:56.544Z,11.30
2023-09-27T23:29:01.349Z,12.10
2023-09-27T23:31:08.584Z,9.90
2023-09-27T23:33:13.319Z,12.80
2023-09-27T23:35:18.336Z,10.70
2023-09-27T23:37:23.227Z,13.10
2023-09-27T23:39:31.164Z,9.10
2023-09-27T23:41:35.786Z,9.70
2023-09-27T23:43:40.459Z,10.80
2023-09-27T23:45:45.235Z,10.00
2023-09-27T23:47:53.169Z,14.70
2023-09-27T23:49:57.963Z,10.30
2023-09-27T23:52:03.079Z,10.70
2023-09-27T23:54:08.125Z,12.90
2023-09-27T23:56:14.486Z,11.80
2023-09-27T23:58:19.273Z,11.40
